createdAt,value
2023-02-24T00:01:49.621Z,13.88
2023-02-24T00:04:17.516Z,12.25
2023-02-24T00:06:45.636Z,11.95
2023-02-24T00:09:15.716Z,17.15
2023-02-24T00:11:45.107Z,12.77
2023-02-24T00:14:15.942Z,16.38
2023-02-24T00:16:45.308Z,14.70
2023-02-24T00:19:16.672Z,14.55
2023-02-24T00:21:45.012Z,13.10
2023-02-24T00:24:14.353Z,13.23
2023-02-24T00:26:42.840Z,13.48
2023-02-24T00:29:13.692Z,13.77
2023-02-24T00:31:43.439Z,13.80
2023-02-24T00:34:13.370Z,14.00
2023-02-24T00:36:42.737Z,17.08
2023-02-24T00:39:12.704Z,18.33
2023-02-24T00:41:43.517Z,16.85
2023-02-24T00:44:16.076Z,16.35
2023-02-24T00:46:45.960Z,17.40
2023-02-24T00:49:17.334Z,18.52
2023-02-24T00:51:49.092Z,13.63
2023-02-24T00:54:17.701Z,14.10
2023-02-24T00:56:47.556Z,15.95
2023-02-24T00:59:16.881Z,17.17
2023-02-24T01:01:45.179Z,12.13
2023-02-24T01:04:14.318Z,13.15
2023-02-24T01:06:45.090Z,16.40
2023-02-24T01:09:16.082Z,15.07
2023-02-24T01:12:23.052Z,17.05
2023-02-24T01:14:53.022Z,13.75
2023-02-24T01:17:22.001Z,10.88
2023-02-24T01:19:50.310Z,12.43
2023-02-24T01:22:19.747Z,13.25
2023-02-24T01:24:49.755Z,12.90
2023-02-24T01:27:21.377Z,15.35
2023-02-24T01:29:49.791Z,10.98
2023-02-24T01:32:20.247Z,11.27
2023-02-24T01:34:48.284Z,11.73
2023-02-24T01:37:16.895Z,13.80
2023-02-24T01:39:45.252Z,13.27
2023-02-24T01:42:19.389Z,13.93
2023-02-24T01:45:16.219Z,15.00
2023-02-24T01:47:47.300Z,10.45
2023-02-24T01:50:17.667Z,12.30
2023-02-24T01:52:47.588Z,11.45
2023-02-24T01:55:20.201Z,10.98
2023-02-24T01:57:50.236Z,11.32
2023-02-24T02:00:33.696Z,11.32
2023-02-24T02:03:04.085Z,10.20
2023-02-24T02:05:31.769Z,10.90
2023-02-24T02:08:00.487Z,10.38
2023-02-24T02:10:28.997Z,10.48
2023-02-24T02:12:58.176Z,8.63
2023-02-24T02:15:26.007Z,9.60
2023-02-24T02:18:02.605Z,9.70
2023-02-24T02:21:09.821Z,8.13
2023-02-24T02:23:55.077Z,9.70
2023-02-24T02:26:55.135Z,12.93
2023-02-24T02:29:45.584Z,7.85
2023-02-24T02:32:42.069Z,8.90
2023-02-24T02:35:13.981Z,10.57
2023-02-24T02:37:48.697Z,9.20
2023-02-24T02:40:23.223Z,10.93
2023-02-24T02:42:56.889Z,11.80
2023-02-24T02:45:29.090Z,11.00
2023-02-24T02:48:01.011Z,10.18
2023-02-24T02:50:35.853Z,10.50
2023-02-24T02:53:05.495Z,8.93
2023-02-24T02:55:37.487Z,10.00
2023-02-24T02:58:09.157Z,10.50
2023-02-24T03:00:42.109Z,9.73
2023-02-24T03:03:12.642Z,9.05
2023-02-24T03:05:46.940Z,10.35
2023-02-24T03:08:16.595Z,8.27
2023-02-24T03:10:50.589Z,9.80
2023-02-24T03:13:20.357Z,9.13
2023-02-24T03:15:48.452Z,10.32
2023-02-24T03:18:19.272Z,12.88
2023-02-24T03:20:52.768Z,8.33
2023-02-24T03:23:25.452Z,10.25
2023-02-24T03:25:58.630Z,9.20
2023-02-24T03:28:34.064Z,10.82
2023-02-24T03:31:05.599Z,8.43
2023-02-24T03:33:36.506Z,11.70
2023-02-24T03:36:07.091Z,9.07
2023-02-24T03:38:38.307Z,9.68
2023-02-24T03:41:11.166Z,9.63
2023-02-24T03:43:41.986Z,12.63
2023-02-24T03:46:10.017Z,13.05
2023-02-24T03:48:47.652Z,9.40
2023-02-24T03:51:20.027Z,11.60
2023-02-24T03:53:58.137Z,10.90
2023-02-24T03:56:30.399Z,10.27
2023-02-24T03:59:12.760Z,10.23
2023-02-24T04:01:46.731Z,8.23
2023-02-24T04:04:20.123Z,10.73
2023-02-24T04:06:56.091Z,8.70
2023-02-24T04:09:29.616Z,8.83
2023-02-24T04:12:00.012Z,8.50
2023-02-24T04:14:31.384Z,9.13
2023-02-24T04:17:02.932Z,8.00
2023-02-24T04:19:33.217Z,7.78
2023-02-24T04:22:03.940Z,9.18
2023-02-24T04:24:32.094Z,7.43
2023-02-24T04:27:02.359Z,6.53
2023-02-24T04:29:35.440Z,8.10
2023-02-24T04:32:07.164Z,7.50
2023-02-24T04:34:35.153Z,7.70
2023-02-24T04:37:04.211Z,6.03
2023-02-24T04:39:33.557Z,7.57
2023-02-24T04:42:01.764Z,10.67
2023-02-24T04:44:29.478Z,6.30
2023-02-24T04:46:57.153Z,8.35
2023-02-24T04:49:24.889Z,8.70
2023-02-24T04:51:52.591Z,6.65
2023-02-24T04:54:24.307Z,7.32
2023-02-24T04:56:52.901Z,10.50
2023-02-24T04:59:21.559Z,7.57
2023-02-24T05:01:51.671Z,7.47
2023-02-24T05:04:19.848Z,10.30
2023-02-24T05:06:47.864Z,7.80
2023-02-24T05:09:18.158Z,8.07
2023-02-24T05:11:49.131Z,6.80
2023-02-24T05:14:18.441Z,7.25
2023-02-24T05:16:47.214Z,6.22
2023-02-24T05:19:36.977Z,6.88
2023-02-24T05:22:07.000Z,6.13
2023-02-24T05:24:35.311Z,10.00
2023-02-24T05:27:04.558Z,6.72
2023-02-24T05:29:34.967Z,6.18
2023-02-24T05:32:04.367Z,6.73
2023-02-24T05:34:34.042Z,7.32
2023-02-24T05:37:04.441Z,9.43
2023-02-24T05:39:32.877Z,8.75
2023-02-24T05:42:06.122Z,9.90
2023-02-24T05:44:36.500Z,11.30
2023-02-24T05:47:05.740Z,8.02
2023-02-24T05:49:34.806Z,6.90
2023-02-24T05:52:07.795Z,7.50
2023-02-24T05:54:37.776Z,8.53
2023-02-24T05:57:08.936Z,7.20
2023-02-24T05:59:38.600Z,9.80
2023-02-24T06:02:09.609Z,7.63
2023-02-24T06:04:45.803Z,8.18
2023-02-24T06:07:19.063Z,8.00
2023-02-24T06:09:50.151Z,12.27
2023-02-24T06:12:18.828Z,6.40
2023-02-24T06:14:48.344Z,9.23
2023-02-24T06:17:18.692Z,7.55
2023-02-24T06:19:48.009Z,8.45
2023-02-24T06:22:16.892Z,14.70
2023-02-24T06:24:45.407Z,9.10
2023-02-24T06:27:17.656Z,8.70
2023-02-24T06:29:49.918Z,9.20
2023-02-24T06:32:17.932Z,7.32
2023-02-24T06:34:45.758Z,7.00
2023-02-24T06:37:15.243Z,6.05
2023-02-24T06:39:43.199Z,7.72
2023-02-24T06:42:12.191Z,8.63
2023-02-24T06:44:42.029Z,7.00
2023-02-24T06:47:14.146Z,7.97
2023-02-24T06:49:42.657Z,10.27
2023-02-24T06:52:10.976Z,9.52
2023-02-24T06:54:38.671Z,7.03
2023-02-24T06:57:08.724Z,7.63
2023-02-24T06:59:36.432Z,8.18
2023-02-24T07:02:04.185Z,6.65
2023-02-24T07:04:43.620Z,7.90
2023-02-24T07:07:14.308Z,7.20
2023-02-24T07:09:44.016Z,7.40
2023-02-24T07:12:12.529Z,7.50
2023-02-24T07:14:40.977Z,7.00
2023-02-24T07:17:08.857Z,8.63
2023-02-24T07:19:38.220Z,7.60
2023-02-24T07:22:05.956Z,10.95
2023-02-24T07:24:36.571Z,6.85
2023-02-24T07:27:06.180Z,9.43
2023-02-24T07:29:35.417Z,7.80
2023-02-24T07:32:05.748Z,8.30
2023-02-24T07:34:34.236Z,8.73
2023-02-24T07:37:07.971Z,9.98
2023-02-24T07:39:37.493Z,7.13
2023-02-24T07:42:06.347Z,7.45
2023-02-24T07:44:34.236Z,7.88
2023-02-24T07:47:07.628Z,8.63
2023-02-24T07:49:36.201Z,8.77
2023-02-24T07:52:08.127Z,6.15
2023-02-24T07:54:36.187Z,6.70
2023-02-24T07:57:03.957Z,9.50
2023-02-24T07:59:33.368Z,8.88
2023-02-24T08:02:04.824Z,7.55
2023-02-24T08:04:33.928Z,9.10
2023-02-24T08:07:03.381Z,8.73
2023-02-24T08:10:03.507Z,7.55
2023-02-24T08:12:31.225Z,10.55
2023-02-24T08:15:00.263Z,11.15
2023-02-24T08:17:28.629Z,7.40
2023-02-24T08:20:17.787Z,8.70
2023-02-24T08:22:52.036Z,10.18
2023-02-24T08:25:23.156Z,9.90
2023-02-24T08:28:12.261Z,9.20
2023-02-24T08:30:45.354Z,8.30
2023-02-24T08:33:17.517Z,9.23
2023-02-24T08:35:45.621Z,8.32
2023-02-24T08:38:16.259Z,9.65
2023-02-24T08:40:54.879Z,7.72
2023-02-24T08:43:33.068Z,11.82
2023-02-24T08:46:04.385Z,13.45
2023-02-24T08:48:37.411Z,10.23
2023-02-24T08:51:10.967Z,13.73
2023-02-24T08:53:40.574Z,12.15
2023-02-24T08:56:11.635Z,8.82
2023-02-24T08:58:47.122Z,9.27
2023-02-24T09:01:24.282Z,10.75
2023-02-24T09:03:54.725Z,9.73
2023-02-24T09:06:26.353Z,10.40
2023-02-24T09:09:17.122Z,11.98
2023-02-24T09:11:46.911Z,10.18
2023-02-24T09:14:26.589Z,9.40
2023-02-24T09:17:06.932Z,11.30
2023-02-24T09:20:02.976Z,10.60
2023-02-24T09:22:31.898Z,9.60
2023-02-24T09:25:21.315Z,12.27
2023-02-24T09:27:56.385Z,11.15
2023-02-24T09:30:36.775Z,12.40
2023-02-24T09:33:17.626Z,12.07
2023-02-24T09:35:51.123Z,12.63
2023-02-24T09:38:20.397Z,7.82
2023-02-24T09:40:52.299Z,7.63
2023-02-24T09:43:24.513Z,8.55
2023-02-24T09:45:58.399Z,8.68
2023-02-24T09:48:43.559Z,9.45
2023-02-24T09:51:21.628Z,12.90
2023-02-24T09:53:53.797Z,13.20
2023-02-24T09:56:28.575Z,9.50
2023-02-24T09:59:10.272Z,10.07
2023-02-24T10:01:43.753Z,10.20
2023-02-24T10:04:49.190Z,10.48
2023-02-24T10:07:18.690Z,10.88
2023-02-24T10:09:51.142Z,9.57
2023-02-24T10:12:24.060Z,8.70
2023-02-24T10:15:16.888Z,9.30
2023-02-24T10:17:47.334Z,10.63
2023-02-24T10:20:30.940Z,11.10
2023-02-24T10:23:01.924Z,11.05
2023-02-24T10:25:43.578Z,10.07
2023-02-24T10:28:23.013Z,12.90
2023-02-24T10:31:04.015Z,13.38
2023-02-24T10:33:38.881Z,10.95
2023-02-24T10:36:09.313Z,13.65
2023-02-24T10:38:38.087Z,10.30
2023-02-24T10:41:07.175Z,11.27
2023-02-24T10:43:45.446Z,11.02
2023-02-24T10:46:41.150Z,11.02
2023-02-24T10:49:16.510Z,11.20
2023-02-24T10:51:49.239Z,10.13
2023-02-24T10:54:34.421Z,12.95
2023-02-24T10:57:15.886Z,14.83
2023-02-24T11:00:19.553Z,10.35
2023-02-24T11:03:10.468Z,9.82
2023-02-24T11:05:44.383Z,10.47
2023-02-24T11:08:36.359Z,12.13
2023-02-24T11:11:20.370Z,14.53
2023-02-24T11:14:09.516Z,8.38
2023-02-24T11:17:06.110Z,9.90
2023-02-24T11:19:38.833Z,14.52
2023-02-24T11:22:08.753Z,12.20
2023-02-24T11:24:38.373Z,11.10
2023-02-24T11:27:06.382Z,14.63
2023-02-24T11:29:43.582Z,10.90
2023-02-24T11:32:20.047Z,8.00
2023-02-24T11:34:54.062Z,10.70
2023-02-24T11:37:30.856Z,12.88
2023-02-24T11:40:01.576Z,11.63
2023-02-24T11:42:34.231Z,10.60
2023-02-24T11:45:06.457Z,12.57
2023-02-24T11:47:38.284Z,12.82
2023-02-24T11:50:20.532Z,10.05
2023-02-24T11:52:49.273Z,13.57
2023-02-24T11:55:26.247Z,13.95
2023-02-24T11:57:57.377Z,10.02
2023-02-24T12:00:27.985Z,12.65
2023-02-24T12:03:02.274Z,15.52
2023-02-24T12:05:36.837Z,9.13
2023-02-24T12:08:07.132Z,9.50
2023-02-24T12:10:37.829Z,10.23
2023-02-24T12:13:14.801Z,8.13
2023-02-24T12:15:46.668Z,7.75
2023-02-24T12:18:19.879Z,8.13
2023-02-24T12:20:52.258Z,10.27
2023-02-24T12:23:24.576Z,8.57
2023-02-24T12:26:01.981Z,11.98
2023-02-24T12:28:41.082Z,10.90
2023-02-24T12:31:17.951Z,9.45
2023-02-24T12:33:52.189Z,10.13
2023-02-24T12:36:31.031Z,8.93
2023-02-24T12:39:06.951Z,10.43
2023-02-24T12:41:44.764Z,11.93
2023-02-24T12:44:23.227Z,9.82
2023-02-24T12:46:58.120Z,9.85
2023-02-24T12:49:35.624Z,9.18
2023-02-24T12:52:12.108Z,8.25
2023-02-24T12:54:43.202Z,10.10
2023-02-24T12:57:14.940Z,10.10
2023-02-24T12:59:43.252Z,11.63
2023-02-24T13:02:17.762Z,11.63
2023-02-24T13:04:52.353Z,12.10
2023-02-24T13:07:43.271Z,11.23
2023-02-24T13:10:20.266Z,13.55
2023-02-24T13:12:51.869Z,11.25
2023-02-24T13:15:22.401Z,11.67
2023-02-24T13:17:51.703Z,11.13
2023-02-24T13:20:33.119Z,12.52
2023-02-24T13:23:04.888Z,12.20
2023-02-24T13:25:34.772Z,13.68
2023-02-24T13:28:03.985Z,12.65
2023-02-24T13:30:36.976Z,12.23
2023-02-24T13:33:08.552Z,14.05
2023-02-24T13:35:37.719Z,12.73
2023-02-24T13:38:12.100Z,12.80
2023-02-24T13:40:39.889Z,14.98
2023-02-24T13:43:24.281Z,14.57
2023-02-24T13:45:57.078Z,17.20
2023-02-24T13:48:46.620Z,15.10
2023-02-24T13:51:25.599Z,13.77
2023-02-24T13:54:04.029Z,6.10
2023-02-24T13:56:38.550Z,8.70
2023-02-24T13:59:30.307Z,8.05
2023-02-24T14:01:59.780Z,8.60
2023-02-24T14:04:29.672Z,6.45
2023-02-24T14:07:00.292Z,9.33
2023-02-24T14:09:33.755Z,13.25
2023-02-24T14:12:02.665Z,7.77
2023-02-24T14:14:31.059Z,11.52
2023-02-24T14:16:58.674Z,12.98
2023-02-24T14:19:27.020Z,13.25
2023-02-24T14:21:56.558Z,10.43
2023-02-24T14:24:24.975Z,13.13
2023-02-24T14:26:55.765Z,11.93
2023-02-24T14:29:26.637Z,13.27
2023-02-24T14:31:55.324Z,12.52
2023-02-24T14:34:25.724Z,12.50
2023-02-24T14:36:55.304Z,12.20
2023-02-24T14:39:24.401Z,11.45
2023-02-24T14:44:23.726Z,9.45
2023-02-24T14:46:53.436Z,10.02
2023-02-24T14:49:24.179Z,10.48
2023-02-24T14:51:56.002Z,11.18
2023-02-24T14:54:35.555Z,9.43
2023-02-24T14:57:03.603Z,10.07
2023-02-24T14:59:34.788Z,8.00
2023-02-24T15:02:03.803Z,8.38
2023-02-24T15:04:36.806Z,8.20
2023-02-24T15:07:07.288Z,6.43
2023-02-24T15:09:37.118Z,7.63
2023-02-24T15:12:14.319Z,9.82
2023-02-24T15:14:44.433Z,8.02
2023-02-24T15:17:16.956Z,7.50
2023-02-24T15:19:47.071Z,6.05
2023-02-24T15:22:50.080Z,5.63
2023-02-24T15:25:24.110Z,4.32
2023-02-24T15:27:57.287Z,5.20
2023-02-24T15:30:32.500Z,5.10
2023-02-24T15:33:02.891Z,4.35
2023-02-24T15:35:33.162Z,4.80
2023-02-24T15:38:03.352Z,5.72
2023-02-24T15:40:31.748Z,4.90
2023-02-24T15:43:01.106Z,3.83
2023-02-24T15:45:31.708Z,6.80
2023-02-24T15:48:01.049Z,4.47
2023-02-24T15:50:30.258Z,6.15
2023-02-24T15:52:59.488Z,5.57
2023-02-24T15:55:32.557Z,3.60
2023-02-24T15:58:02.774Z,4.73
2023-02-24T16:00:31.370Z,4.63
2023-02-24T16:02:59.478Z,3.55
2023-02-24T16:05:27.294Z,5.78
2023-02-24T16:07:55.800Z,5.30
2023-02-24T16:10:25.656Z,5.18
2023-02-24T16:12:55.834Z,4.68
2023-02-24T16:15:25.842Z,4.05
2023-02-24T16:17:53.977Z,5.55
2023-02-24T16:20:27.471Z,4.00
2023-02-24T16:24:53.160Z,7.15
2023-02-24T16:27:23.784Z,5.90
2023-02-24T16:29:51.497Z,7.93
2023-02-24T16:32:21.581Z,8.05
2023-02-24T16:34:49.382Z,7.32
2023-02-24T16:37:19.445Z,7.93
2023-02-24T16:39:49.380Z,5.72
2023-02-24T16:42:20.260Z,4.68
2023-02-24T16:44:50.085Z,9.32
2023-02-24T16:47:19.790Z,8.70
2023-02-24T16:52:02.419Z,5.72
2023-02-24T16:54:30.045Z,6.88
2023-02-24T16:56:58.433Z,6.45
2023-02-24T16:59:26.756Z,5.63
2023-02-24T17:01:54.798Z,5.05
2023-02-24T17:04:24.818Z,7.00
2023-02-24T17:08:31.783Z,6.53
2023-02-24T17:10:59.484Z,7.88
2023-02-24T17:13:27.155Z,9.10
2023-02-24T17:15:57.226Z,8.82
2023-02-24T17:18:25.885Z,6.80
2023-02-24T17:20:54.094Z,6.37
2023-02-24T17:23:21.963Z,6.55
2023-02-24T17:25:53.110Z,9.15
2023-02-24T17:28:21.174Z,9.50
2023-02-24T17:30:49.004Z,12.80
2023-02-24T17:33:16.797Z,10.63
2023-02-24T17:35:46.932Z,12.02
2023-02-24T17:38:14.896Z,9.32
2023-02-24T17:40:43.158Z,11.02
2023-02-24T17:43:12.679Z,11.60
2023-02-24T17:45:44.342Z,9.15
2023-02-24T17:48:12.771Z,12.00
2023-02-24T17:50:42.489Z,8.23
2023-02-24T17:53:10.218Z,8.82
2023-02-24T17:55:38.011Z,8.85
2023-02-24T17:58:05.808Z,10.30
2023-02-24T18:00:34.902Z,10.02
2023-02-24T18:03:03.623Z,10.88
2023-02-24T18:05:31.444Z,7.68
2023-02-24T18:07:59.292Z,9.23
2023-02-24T18:10:27.305Z,7.53
2023-02-24T18:12:55.067Z,10.55
2023-02-24T18:15:22.862Z,11.68
2023-02-24T18:17:51.921Z,10.93
2023-02-24T18:20:19.964Z,11.45
2023-02-24T18:22:47.584Z,9.65
2023-02-24T18:25:15.307Z,11.93
2023-02-24T18:27:43.062Z,11.98
2023-02-24T18:30:13.042Z,10.75
2023-02-24T18:32:44.448Z,15.20
2023-02-24T18:35:14.333Z,13.65
2023-02-24T18:37:41.978Z,11.55
2023-02-24T18:40:11.111Z,13.43
2023-02-24T18:42:38.861Z,12.33
2023-02-24T18:45:07.226Z,12.30
2023-02-24T18:47:34.967Z,13.83
2023-02-24T18:50:02.805Z,13.50
2023-02-24T18:52:31.843Z,13.27
2023-02-24T18:54:59.545Z,12.20
2023-02-24T18:57:27.315Z,14.57
2023-02-24T18:59:54.956Z,11.57
2023-02-24T19:02:22.725Z,12.88
2023-02-24T19:04:50.457Z,10.25
2023-02-24T19:07:18.150Z,12.52
2023-02-24T19:09:49.608Z,11.40
2023-02-24T19:12:19.207Z,12.23
2023-02-24T19:14:46.942Z,10.77
2023-02-24T19:17:14.656Z,13.48
2023-02-24T19:19:43.481Z,15.68
2023-02-24T19:22:11.181Z,12.18
2023-02-24T19:24:38.865Z,15.38
2023-02-24T19:27:08.750Z,19.73
2023-02-24T19:29:36.771Z,16.42
2023-02-24T19:32:04.537Z,14.02
2023-02-24T19:34:32.340Z,14.55
2023-02-24T19:37:00.052Z,16.35
2023-02-24T19:39:27.750Z,13.00
2023-02-24T19:41:57.518Z,15.73
2023-02-24T19:44:26.591Z,18.48
2023-02-24T19:46:54.372Z,14.30
2023-02-24T19:49:22.036Z,13.93
2023-02-24T19:51:49.753Z,10.65
2023-02-24T19:54:17.705Z,12.88
2023-02-24T19:56:45.401Z,11.23
2023-02-24T19:59:13.099Z,10.93
2023-02-24T20:01:42.649Z,11.82
2023-02-24T20:04:10.516Z,12.63
2023-02-24T20:06:40.707Z,12.05
2023-02-24T20:09:09.956Z,11.73
2023-02-24T20:11:38.082Z,12.15
2023-02-24T20:14:06.214Z,13.93
2023-02-24T20:16:34.836Z,15.18
2023-02-24T20:19:06.049Z,13.02
2023-02-24T20:21:34.886Z,21.98
2023-02-24T20:24:03.231Z,16.88
2023-02-24T20:26:30.975Z,16.17
2023-02-24T20:28:58.871Z,16.38
2023-02-24T20:31:26.912Z,13.23
2023-02-24T20:33:54.669Z,17.55
2023-02-24T20:36:27.018Z,18.20
2023-02-24T20:38:56.630Z,17.80
2023-02-24T20:41:24.328Z,17.67
2023-02-24T20:43:52.072Z,14.05
2023-02-24T20:46:24.041Z,13.45
2023-02-24T20:48:52.332Z,12.32
2023-02-24T20:51:20.097Z,14.45
2023-02-24T20:53:57.296Z,13.07
2023-02-24T20:56:25.924Z,13.30
2023-02-24T20:58:59.813Z,12.07
2023-02-24T21:01:28.415Z,13.32
2023-02-24T21:03:56.296Z,13.40
2023-02-24T21:06:24.499Z,14.32
2023-02-24T21:08:54.135Z,10.25
2023-02-24T21:11:23.064Z,11.98
2023-02-24T21:13:51.929Z,13.05
2023-02-24T21:16:21.007Z,12.05
2023-02-24T21:18:50.546Z,14.38
2023-02-24T21:21:19.937Z,12.55
2023-02-24T21:23:48.413Z,13.65
2023-02-24T21:26:17.801Z,13.20
2023-02-24T21:28:46.538Z,13.65
2023-02-24T21:31:16.704Z,10.25
2023-02-24T21:33:44.650Z,9.02
2023-02-24T21:36:14.343Z,9.20
2023-02-24T21:38:42.352Z,11.10
2023-02-24T21:41:13.491Z,11.07
2023-02-24T21:43:42.796Z,9.33
2023-02-24T21:46:11.371Z,10.85
2023-02-24T21:48:40.591Z,10.40
2023-02-24T21:51:10.484Z,10.30
2023-02-24T21:53:40.782Z,8.97
2023-02-24T21:56:11.037Z,9.85
2023-02-24T21:58:40.177Z,9.02
2023-02-24T22:01:12.192Z,8.88
2023-02-24T22:03:40.088Z,12.48
2023-02-24T22:06:10.226Z,10.30
2023-02-24T22:08:43.068Z,11.02
2023-02-24T22:11:11.650Z,10.93
2023-02-24T22:13:39.394Z,12.88
2023-02-24T22:16:08.569Z,9.52
2023-02-24T22:18:37.727Z,11.47
2023-02-24T22:21:09.167Z,9.55
2023-02-24T22:23:36.857Z,12.73
2023-02-24T22:26:05.822Z,12.88
2023-02-24T22:28:34.846Z,10.50
2023-02-24T22:31:03.002Z,10.32
2023-02-24T22:33:31.887Z,12.05
2023-02-24T22:36:03.664Z,9.05
2023-02-24T22:38:32.557Z,14.57
2023-02-24T22:41:01.546Z,7.78
2023-02-24T22:43:29.714Z,11.02
2023-02-24T22:45:59.039Z,11.83
2023-02-24T22:48:26.789Z,12.15
2023-02-24T22:50:55.659Z,12.10
2023-02-24T22:53:25.464Z,10.52
2023-02-24T22:55:53.140Z,9.80
2023-02-24T22:58:21.963Z,13.68
2023-02-24T23:00:49.718Z,12.97
2023-02-24T23:03:19.637Z,12.73
2023-02-24T23:05:55.537Z,10.40
2023-02-24T23:08:24.852Z,11.88
2023-02-24T23:10:52.673Z,12.25
2023-02-24T23:13:20.939Z,12.07
2023-02-24T23:15:48.810Z,13.05
2023-02-24T23:18:16.840Z,10.98
2023-02-24T23:20:45.615Z,9.85
2023-02-24T23:23:13.367Z,11.00
2023-02-24T23:25:44.751Z,10.70
2023-02-24T23:28:12.411Z,9.48
2023-02-24T23:30:42.132Z,9.35
2023-02-24T23:33:11.033Z,10.82
2023-02-24T23:35:39.542Z,10.48
2023-02-24T23:38:07.618Z,10.73
2023-02-24T23:40:48.062Z,9.80
2023-02-24T23:43:18.901Z,11.53
2023-02-24T23:45:46.734Z,12.35
2023-02-24T23:48:15.658Z,12.30
2023-02-24T23:50:45.905Z,10.68
2023-02-24T23:53:13.609Z,12.45
2023-02-24T23:55:41.592Z,13.67
2023-02-24T23:58:09.635Z,14.73
